sensor_id;sensor_type;location;lat;lon;timestamp;pressure;altitude;pressure_sealevel;temperature;humidity
7962;BME280;4026;43.652;24.906;2023-04-09T15:26:46;99462.75;;;16.04;48.60
7962;BME280;4026;43.652;24.906;2023-04-09T15:29:14;99464.38;;;15.76;48.56
7962;BME280;4026;43.652;24.906;2023-04-09T15:31:40;99463.84;;;15.82;49.29
7962;BME280;4026;43.652;24.906;2023-04-09T15:34:07;99462.97;;;15.62;48.71
7962;BME280;4026;43.652;24.906;2023-04-09T15:36:34;99458.38;;;15.56;50.07
7962;BME280;4026;43.652;24.906;2023-04-09T15:39:01;99450.63;;;15.56;49.71
7962;BME280;4026;43.652;24.906;2023-04-09T15:41:28;99457.19;;;15.30;50.38
7962;BME280;4026;43.652;24.906;2023-04-09T15:43:58;99454.16;;;15.05;50.90
7962;BME280;4026;43.652;24.906;2023-04-09T15:46:24;99451.94;;;14.91;49.95
7962;BME280;4026;43.652;24.906;2023-04-09T15:48:51;99446.78;;;14.91;50.93
7962;BME280;4026;43.652;24.906;2023-04-09T15:51:19;99442.13;;;14.75;51.66
7962;BME280;4026;43.652;24.906;2023-04-09T15:53:46;99439.66;;;14.74;51.52
7962;BME280;4026;43.652;24.906;2023-04-09T15:56:13;99437.69;;;14.56;51.35
7962;BME280;4026;43.652;24.906;2023-04-09T15:58:40;99442.19;;;14.43;52.16
7962;BME280;4026;43.652;24.906;2023-04-09T16:01:09;99442.75;;;14.46;52.71
7962;BME280;4026;43.652;24.906;2023-04-09T16:03:36;99439.88;;;14.40;53.00
7962;BME280;4026;43.652;24.906;2023-04-09T16:06:06;99441.53;;;14.20;53.19
7962;BME280;4026;43.652;24.906;2023-04-09T16:08:33;99440.94;;;14.16;54.52
7962;BME280;4026;43.652;24.906;2023-04-09T16:11:01;99440.41;;;14.01;54.60
7962;BME280;4026;43.652;24.906;2023-04-09T16:13:28;99441.88;;;14.15;54.93
7962;BME280;4026;43.652;24.906;2023-04-09T16:15:55;99438.91;;;13.99;54.41
7962;BME280;4026;43.652;24.906;2023-04-09T16:18:24;99440.66;;;13.77;55.50
7962;BME280;4026;43.652;24.906;2023-04-09T16:20:51;99437.38;;;13.75;56.53
7962;BME280;4026;43.652;24.906;2023-04-09T16:23:19;99438.09;;;13.66;55.91
7962;BME280;4026;43.652;24.906;2023-04-09T16:25:46;99441.69;;;13.43;56.29
7962;BME280;4026;43.652;24.906;2023-04-09T16:28:13;99442.88;;;13.39;57.22
7962;BME280;4026;43.652;24.906;2023-04-09T16:30:41;99441.22;;;13.26;57.67
7962;BME280;4026;43.652;24.906;2023-04-09T16:33:08;99434.47;;;13.25;57.45
7962;BME280;4026;43.652;24.906;2023-04-09T16:35:37;99440.19;;;13.29;57.22
7962;BME280;4026;43.652;24.906;2023-04-09T16:38:05;99442.16;;;13.14;58.44
7962;BME280;4026;43.652;24.906;2023-04-09T16:40:32;99441.91;;;13.17;58.70
7962;BME280;4026;43.652;24.906;2023-04-09T16:42:59;99440.28;;;13.05;59.00
7962;BME280;4026;43.652;24.906;2023-04-09T16:45:26;99444.03;;;12.89;59.52
7962;BME280;4026;43.652;24.906;2023-04-09T16:47:53;99443.00;;;12.81;59.81
7962;BME280;4026;43.652;24.906;2023-04-09T16:50:20;99446.03;;;12.75;61.12
7962;BME280;4026;43.652;24.906;2023-04-09T16:52:48;99439.00;;;12.54;61.01
7962;BME280;4026;43.652;24.906;2023-04-09T16:55:15;99445.91;;;12.54;62.25
7962;BME280;4026;43.652;24.906;2023-04-09T16:57:42;99442.38;;;12.55;62.22
7962;BME280;4026;43.652;24.906;2023-04-09T17:00:09;99441.84;;;12.27;63.11
7962;BME280;4026;43.652;24.906;2023-04-09T17:02:37;99448.25;;;12.21;62.74
7962;BME280;4026;43.652;24.906;2023-04-09T17:05:04;99447.06;;;12.14;63.73
7962;BME280;4026;43.652;24.906;2023-04-09T17:07:31;99446.81;;;12.06;63.42
7962;BME280;4026;43.652;24.906;2023-04-09T17:09:59;99446.53;;;11.98;65.10
7962;BME280;4026;43.652;24.906;2023-04-09T17:12:26;99445.94;;;11.94;65.57
7962;BME280;4026;43.652;24.906;2023-04-09T17:14:53;99448.44;;;11.83;66.34
7962;BME280;4026;43.652;24.906;2023-04-09T17:17:20;99459.13;;;11.77;66.81
7962;BME280;4026;43.652;24.906;2023-04-09T17:19:47;99455.59;;;11.67;68.37
7962;BME280;4026;43.652;24.906;2023-04-09T17:22:14;99464.63;;;11.60;68.21
7962;BME280;4026;43.652;24.906;2023-04-09T17:24:42;99463.84;;;11.46;69.35
7962;BME280;4026;43.652;24.906;2023-04-09T17:27:10;99465.09;;;11.41;70.61
7962;BME280;4026;43.652;24.906;2023-04-09T17:29:37;99470.16;;;11.29;71.00
7962;BME280;4026;43.652;24.906;2023-04-09T17:32:05;99473.13;;;11.23;71.30
7962;BME280;4026;43.652;24.906;2023-04-09T17:34:32;99471.59;;;11.21;71.48
7962;BME280;4026;43.652;24.906;2023-04-09T17:36:58;99474.16;;;11.21;71.61
7962;BME280;4026;43.652;24.906;2023-04-09T17:39:25;99479.81;;;11.00;73.57
7962;BME280;4026;43.652;24.906;2023-04-09T17:41:53;99482.78;;;10.94;74.37
7962;BME280;4026;43.652;24.906;2023-04-09T17:44:24;99477.94;;;11.02;73.91
7962;BME280;4026;43.652;24.906;2023-04-09T17:46:50;99482.66;;;11.08;73.52
7962;BME280;4026;43.652;24.906;2023-04-09T17:49:17;99487.69;;;10.97;74.36
7962;BME280;4026;43.652;24.906;2023-04-09T17:51:46;99486.16;;;10.95;75.39
7962;BME280;4026;43.652;24.906;2023-04-09T17:54:13;99491.09;;;10.85;76.36
7962;BME280;4026;43.652;24.906;2023-04-09T17:56:40;99490.66;;;10.78;76.36
7962;BME280;4026;43.652;24.906;2023-04-09T17:59:07;99493.53;;;10.74;nan
7962;BME280;4026;43.652;24.906;2023-04-09T18:01:35;99480.22;;;10.69;76.98
7962;BME280;4026;43.652;24.906;2023-04-09T18:04:01;99491.47;;;10.53;78.29
7962;BME280;4026;43.652;24.906;2023-04-09T18:06:28;99494.22;;;10.50;78.83
7962;BME280;4026;43.652;24.906;2023-04-09T18:08:55;99498.22;;;10.54;79.63
7962;BME280;4026;43.652;24.906;2023-04-09T18:11:22;99498.63;;;10.48;79.10
7962;BME280;4026;43.652;24.906;2023-04-09T18:13:49;99502.28;;;10.44;80.30
7962;BME280;4026;43.652;24.906;2023-04-09T18:16:16;99502.19;;;10.46;79.97
7962;BME280;4026;43.652;24.906;2023-04-09T18:18:46;99504.94;;;10.42;81.06
7962;BME280;4026;43.652;24.906;2023-04-09T18:21:13;99503.28;;;10.29;81.20
7962;BME280;4026;43.652;24.906;2023-04-09T18:23:40;99511.47;;;10.47;80.59
7962;BME280;4026;43.652;24.906;2023-04-09T18:26:07;99512.41;;;10.33;81.48
7962;BME280;4026;43.652;24.906;2023-04-09T18:28:34;99509.66;;;10.36;81.94
7962;BME280;4026;43.652;24.906;2023-04-09T18:31:01;99507.59;;;10.41;82.43
7962;BME280;4026;43.652;24.906;2023-04-09T18:33:27;99505.81;;;10.29;83.30
7962;BME280;4026;43.652;24.906;2023-04-09T18:35:58;99511.69;;;10.16;84.26
7962;BME280;4026;43.652;24.906;2023-04-09T18:38:27;99514.66;;;10.10;84.77
7962;BME280;4026;43.652;24.906;2023-04-09T18:40:54;99521.38;;;10.11;85.14
7962;BME280;4026;43.652;24.906;2023-04-09T18:43:22;99515.66;;;10.08;85.87
7962;BME280;4026;43.652;24.906;2023-04-09T18:45:49;99513.16;;;9.93;86.37
7962;BME280;4026;43.652;24.906;2023-04-09T18:48:16;99513.97;;;9.94;86.30
7962;BME280;4026;43.652;24.906;2023-04-09T18:50:44;99514.69;;;9.96;86.93
7962;BME280;4026;43.652;24.906;2023-04-09T18:53:12;99512.53;;;9.90;87.07
7962;BME280;4026;43.652;24.906;2023-04-09T18:55:39;99521.47;;;9.83;87.62
7962;BME280;4026;43.652;24.906;2023-04-09T18:58:06;99515.44;;;9.98;86.74
7962;BME280;4026;43.652;24.906;2023-04-09T19:00:37;99517.25;;;9.96;86.84
7962;BME280;4026;43.652;24.906;2023-04-09T19:03:04;99513.72;;;9.84;87.51
7962;BME280;4026;43.652;24.906;2023-04-09T19:05:32;99517.09;;;9.85;88.02
7962;BME280;4026;43.652;24.906;2023-04-09T19:07:59;99510.06;;;9.88;87.76
7962;BME280;4026;43.652;24.906;2023-04-09T19:10:28;99514.31;;;9.75;88.66
7962;BME280;4026;43.652;24.906;2023-04-09T19:12:57;99509.09;;;9.77;87.76
7962;BME280;4026;43.652;24.906;2023-04-09T19:15:25;99508.91;;;9.80;87.96
7962;BME280;4026;43.652;24.906;2023-04-09T19:17:53;99510.75;;;9.78;88.85
7962;BME280;4026;43.652;24.906;2023-04-09T19:20:19;99514.38;;;9.73;89.75
7962;BME280;4026;43.652;24.906;2023-04-09T19:22:46;99506.94;;;9.56;91.03
7962;BME280;4026;43.652;24.906;2023-04-09T19:25:14;99510.22;;;9.58;90.98
7962;BME280;4026;43.652;24.906;2023-04-09T19:27:42;99508.22;;;9.63;90.86
7962;BME280;4026;43.652;24.906;2023-04-09T19:30:10;99507.69;;;9.58;92.23
7962;BME280;4026;43.652;24.906;2023-04-09T19:32:37;99508.59;;;9.57;91.75
7962;BME280;4026;43.652;24.906;2023-04-09T19:35:06;99514.41;;;9.59;91.00
7962;BME280;4026;43.652;24.906;2023-04-09T19:37:33;99509.31;;;9.59;90.05
7962;BME280;4026;43.652;24.906;2023-04-09T19:40:00;99516.44;;;9.54;88.84
7962;BME280;4026;43.652;24.906;2023-04-09T19:42:28;99505.84;;;9.60;88.00
7962;BME280;4026;43.652;24.906;2023-04-09T19:44:58;99507.28;;;9.64;87.40
7962;BME280;4026;43.652;24.906;2023-04-09T19:47:25;99510.97;;;9.60;86.63
7962;BME280;4026;43.652;24.906;2023-04-09T19:49:53;99508.88;;;9.52;87.50
7962;BME280;4026;43.652;24.906;2023-04-09T19:52:20;99516.09;;;9.46;87.34
7962;BME280;4026;43.652;24.906;2023-04-09T19:54:52;99505.31;;;9.55;85.72
7962;BME280;4026;43.652;24.906;2023-04-09T19:57:19;99508.50;;;9.59;86.05
7962;BME280;4026;43.652;24.906;2023-04-09T19:59:46;99497.66;;;9.55;85.67
7962;BME280;4026;43.652;24.906;2023-04-09T20:02:14;99502.13;;;9.51;85.58
7962;BME280;4026;43.652;24.906;2023-04-09T20:04:41;99500.56;;;9.63;85.48
7962;BME280;4026;43.652;24.906;2023-04-09T20:07:08;99502.38;;;9.61;85.49
7962;BME280;4026;43.652;24.906;2023-04-09T20:09:35;99498.09;;;9.62;84.99
7962;BME280;4026;43.652;24.906;2023-04-09T20:12:07;99505.84;;;9.60;85.73
7962;BME280;4026;43.652;24.906;2023-04-09T20:14:33;99504.75;;;9.64;84.56
7962;BME280;4026;43.652;24.906;2023-04-09T20:17:02;99507.50;;;9.61;84.55
7962;BME280;4026;43.652;24.906;2023-04-09T20:19:31;99493.59;;;9.65;86.02
7962;BME280;4026;43.652;24.906;2023-04-09T20:21:57;99494.09;;;9.85;84.63
7962;BME280;4026;43.652;24.906;2023-04-09T20:24:25;99502.16;;;9.79;84.82
7962;BME280;4026;43.652;24.906;2023-04-09T20:26:52;99493.91;;;9.88;84.06
7962;BME280;4026;43.652;24.906;2023-04-09T20:29:19;99501.50;;;9.89;84.29
7962;BME280;4026;43.652;24.906;2023-04-09T20:31:46;99494.31;;;9.82;84.30
7962;BME280;4026;43.652;24.906;2023-04-09T20:34:13;99500.28;;;9.95;83.62
7962;BME280;4026;43.652;24.906;2023-04-09T20:36:41;99500.59;;;10.03;84.06
7962;BME280;4026;43.652;24.906;2023-04-09T20:39:08;99492.63;;;9.95;84.38
7962;BME280;4026;43.652;24.906;2023-04-09T20:41:35;99500.66;;;9.89;85.02
7962;BME280;4026;43.652;24.906;2023-04-09T20:44:02;99497.41;;;9.87;86.13
7962;BME280;4026;43.652;24.906;2023-04-09T20:46:29;99497.41;;;9.87;85.30
7962;BME280;4026;43.652;24.906;2023-04-09T20:48:56;99495.38;;;9.92;86.16
7962;BME280;4026;43.652;24.906;2023-04-09T20:51:22;99508.03;;;9.93;86.18
7962;BME280;4026;43.652;24.906;2023-04-09T20:53:51;99503.94;;;9.91;86.24
7962;BME280;4026;43.652;24.906;2023-04-09T20:56:17;99497.78;;;9.81;87.20
7962;BME280;4026;43.652;24.906;2023-04-09T20:58:44;99499.59;;;9.79;87.77
7962;BME280;4026;43.652;24.906;2023-04-09T21:01:11;99499.59;;;9.79;87.64
7962;BME280;4026;43.652;24.906;2023-04-09T21:03:38;99496.28;;;9.64;88.07
7962;BME280;4026;43.652;24.906;2023-04-09T21:06:06;99493.81;;;9.62;89.06
7962;BME280;4026;43.652;24.906;2023-04-09T21:08:33;99494.66;;;9.48;89.21
7962;BME280;4026;43.652;24.906;2023-04-09T21:11:02;99495.19;;;9.53;89.71
7962;BME280;4026;43.652;24.906;2023-04-09T21:13:29;99498.31;;;9.44;91.69
7962;BME280;4026;43.652;24.906;2023-04-09T21:15:56;99497.50;;;9.44;91.70
7962;BME280;4026;43.652;24.906;2023-04-09T21:18:23;99504.59;;;9.39;91.68
7962;BME280;4026;43.652;24.906;2023-04-09T21:20:49;99506.28;;;9.25;92.74
7962;BME280;4026;43.652;24.906;2023-04-09T21:23:16;99499.31;;;9.27;93.39
7962;BME280;4026;43.652;24.906;2023-04-09T21:25:43;99502.06;;;9.10;93.70
7962;BME280;4026;43.652;24.906;2023-04-09T21:28:11;99490.59;;;8.89;95.32
7962;BME280;4026;43.652;24.906;2023-04-09T21:30:38;99492.38;;;8.72;96.55
7962;BME280;4026;43.652;24.906;2023-04-09T21:33:06;99500.75;;;8.74;96.13
7962;BME280;4026;43.652;24.906;2023-04-09T21:35:34;99502.41;;;8.75;97.32
7962;BME280;4026;43.652;24.906;2023-04-09T21:38:01;99505.16;;;8.87;97.54
7962;BME280;4026;43.652;24.906;2023-04-09T21:40:28;99501.88;;;8.70;97.64
7962;BME280;4026;43.652;24.906;2023-04-09T21:42:55;99494.00;;;8.59;98.67
7962;BME280;4026;43.652;24.906;2023-04-09T21:45:23;99493.97;;;8.45;99.41
7962;BME280;4026;43.652;24.906;2023-04-09T21:47:50;99503.19;;;8.47;99.23
7962;BME280;4026;43.652;24.906;2023-04-09T21:50:18;99502.94;;;8.66;98.10
7962;BME280;4026;43.652;24.906;2023-04-09T21:52:45;99498.66;;;8.67;98.71
7962;BME280;4026;43.652;24.906;2023-04-09T21:55:11;99498.72;;;8.51;99.18
7962;BME280;4026;43.652;24.906;2023-04-09T21:57:38;99504.19;;;8.45;99.36
7962;BME280;4026;43.652;24.906;2023-04-09T22:00:06;99504.66;;;8.35;99.53
7962;BME280;4026;43.652;24.906;2023-04-09T22:02:36;99502.13;;;8.20;100.00
7962;BME280;4026;43.652;24.906;2023-04-09T22:05:04;99502.41;;;8.15;100.00
7962;BME280;4026;43.652;24.906;2023-04-09T22:07:31;99503.34;;;8.28;100.00
7962;BME280;4026;43.652;24.906;2023-04-09T22:09:58;99502.06;;;8.21;100.00
7962;BME280;4026;43.652;24.906;2023-04-09T22:12:25;99500.81;;;8.28;100.00
7962;BME280;4026;43.652;24.906;2023-04-09T22:14:51;99499.34;;;8.24;100.00
7962;BME280;4026;43.652;24.906;2023-04-09T22:17:18;99498.44;;;8.25;100.00
7962;BME280;4026;43.652;24.906;2023-04-09T22:19:46;99502.75;;;8.09;100.00
7962;BME280;4026;43.652;24.906;2023-04-09T22:22:15;99495.66;;;8.14;100.00
7962;BME280;4026;43.652;24.906;2023-04-09T22:24:42;99503.19;;;8.31;100.00
7962;BME280;4026;43.652;24.906;2023-04-09T22:27:09;99507.56;;;8.13;100.00
7962;BME280;4026;43.652;24.906;2023-04-09T22:29:36;99506.06;;;8.25;99.84
7962;BME280;4026;43.652;24.906;2023-04-09T22:32:03;99500.41;;;8.20;100.00
7962;BME280;4026;43.652;24.906;2023-04-09T22:34:29;99507.34;;;8.02;100.00
7962;BME280;4026;43.652;24.906;2023-04-09T22:36:58;99501.91;;;8.24;100.00
7962;BME280;4026;43.652;24.906;2023-04-09T22:39:25;99503.34;;;8.28;99.56
7962;BME280;4026;43.652;24.906;2023-04-09T22:41:51;99504.28;;;8.11;100.00
7962;BME280;4026;43.652;24.906;2023-04-09T22:44:18;99494.19;;;8.10;100.00
7962;BME280;4026;43.652;24.906;2023-04-09T22:46:45;99503.97;;;8.02;100.00
7962;BME280;4026;43.652;24.906;2023-04-09T22:49:12;99499.81;;;7.85;100.00
7962;BME280;4026;43.652;24.906;2023-04-09T22:51:39;99501.94;;;7.92;100.00
7962;BME280;4026;43.652;24.906;2023-04-09T22:54:07;99500.84;;;7.97;100.00
7962;BME280;4026;43.652;24.906;2023-04-09T22:56:34;99491.63;;;7.64;100.00
7962;BME280;4026;43.652;24.906;2023-04-09T22:59:02;99490.38;;;7.55;100.00
7962;BME280;4026;43.652;24.906;2023-04-09T23:01:30;99495.56;;;7.69;100.00
7962;BME280;4026;43.652;24.906;2023-04-09T23:03:57;99489.16;;;7.78;100.00
7962;BME280;4026;43.652;24.906;2023-04-09T23:06:24;99490.59;;;7.82;100.00
7962;BME280;4026;43.652;24.906;2023-04-09T23:08:51;99491.78;;;7.77;100.00
7962;BME280;4026;43.652;24.906;2023-04-09T23:11:19;99488.16;;;7.65;100.00
7962;BME280;4026;43.652;24.906;2023-04-09T23:13:46;99487.91;;;7.69;100.00
7962;BME280;4026;43.652;24.906;2023-04-09T23:16:13;99485.84;;;7.76;100.00
7962;BME280;4026;43.652;24.906;2023-04-09T23:18:40;99486.94;;;7.72;100.00
7962;BME280;4026;43.652;24.906;2023-04-09T23:21:07;99482.09;;;7.67;100.00
7962;BME280;4026;43.652;24.906;2023-04-09T23:23:33;99476.00;;;7.70;100.00
7962;BME280;4026;43.652;24.906;2023-04-09T23:26:01;99489.31;;;7.43;100.00
7962;BME280;4026;43.652;24.906;2023-04-09T23:28:29;99479.47;;;7.37;100.00
7962;BME280;4026;43.652;24.906;2023-04-09T23:30:56;99473.56;;;7.37;100.00
7962;BME280;4026;43.652;24.906;2023-04-09T23:33:23;99474.53;;;7.34;100.00
7962;BME280;4026;43.652;24.906;2023-04-09T23:35:50;99472.25;;;7.45;100.00
7962;BME280;4026;43.652;24.906;2023-04-09T23:38:16;99470.41;;;7.47;100.00
7962;BME280;4026;43.652;24.906;2023-04-09T23:40:43;99470.19;;;7.36;100.00
7962;BME280;4026;43.652;24.906;2023-04-09T23:43:11;99474.44;;;7.36;100.00
7962;BME280;4026;43.652;24.906;2023-04-09T23:45:39;99468.03;;;7.44;100.00
7962;BME280;4026;43.652;24.906;2023-04-09T23:48:06;99468.97;;;7.43;100.00
7962;BME280;4026;43.652;24.906;2023-04-09T23:50:36;99463.81;;;7.45;100.00
7962;BME280;4026;43.652;24.906;2023-04-09T23:53:03;99467.31;;;7.42;100.00
7962;BME280;4026;43.652;24.906;2023-04-09T23:55:31;99472.56;;;7.39;100.00
7962;BME280;4026;43.652;24.906;2023-04-09T23:58:02;99468.88;;;7.29;100.00
